sensor_id;sensor_type;location;lat;lon;timestamp;P1;durP1;ratioP1;P2;durP2;ratioP2
40807;SDS011;26523;52.504;13.498;2022-07-09T00:02:23;6.35;;;2.03;;
40807;SDS011;26523;52.504;13.498;2022-07-09T00:04:49;2.85;;;1.25;;
40807;SDS011;26523;52.504;13.498;2022-07-09T00:07:14;6.50;;;1.27;;
40807;SDS011;26523;52.504;13.498;2022-07-09T00:09:40;4.68;;;1.55;;
40807;SDS011;26523;52.504;13.498;2022-07-09T00:12:06;6.00;;;1.58;;
40807;SDS011;26523;52.504;13.498;2022-07-09T00:14:32;2.67;;;1.33;;
40807;SDS011;26523;52.504;13.498;2022-07-09T00:16:57;2.95;;;1.45;;
40807;SDS011;26523;52.504;13.498;2022-07-09T00:19:23;5.07;;;1.70;;
40807;SDS011;26523;52.504;13.498;2022-07-09T00:21:48;3.35;;;1.25;;
40807;SDS011;26523;52.504;13.498;2022-07-09T00:24:14;9.73;;;1.42;;
40807;SDS011;26523;52.504;13.498;2022-07-09T00:26:40;6.38;;;1.85;;
40807;SDS011;26523;52.504;13.498;2022-07-09T00:29:05;4.32;;;1.13;;
40807;SDS011;26523;52.504;13.498;2022-07-09T00:31:31;5.15;;;1.45;;
40807;SDS011;26523;52.504;13.498;2022-07-09T00:33:56;5.30;;;1.17;;
40807;SDS011;26523;52.504;13.498;2022-07-09T00:36:22;2.33;;;1.38;;
40807;SDS011;26523;52.504;13.498;2022-07-09T00:38:48;4.95;;;1.85;;
40807;SDS011;26523;52.504;13.498;2022-07-09T00:41:13;3.63;;;1.10;;
40807;SDS011;26523;52.504;13.498;2022-07-09T00:43:45;2.72;;;0.95;;
40807;SDS011;26523;52.504;13.498;2022-07-09T00:46:14;3.65;;;1.42;;
40807;SDS011;26523;52.504;13.498;2022-07-09T00:48:41;5.47;;;1.27;;
40807;SDS011;26523;52.504;13.498;2022-07-09T00:51:07;5.60;;;1.77;;
40807;SDS011;26523;52.504;13.498;2022-07-09T00:53:33;4.75;;;1.77;;
40807;SDS011;26523;52.504;13.498;2022-07-09T00:55:59;4.20;;;2.03;;
40807;SDS011;26523;52.504;13.498;2022-07-09T00:58:26;8.35;;;1.63;;
40807;SDS011;26523;52.504;13.498;2022-07-09T01:00:53;2.22;;;0.90;;
40807;SDS011;26523;52.504;13.498;2022-07-09T01:03:20;2.55;;;1.40;;
40807;SDS011;26523;52.504;13.498;2022-07-09T01:05:45;6.45;;;1.45;;
40807;SDS011;26523;52.504;13.498;2022-07-09T01:08:11;3.20;;;1.30;;
40807;SDS011;26523;52.504;13.498;2022-07-09T01:10:37;4.20;;;1.30;;
40807;SDS011;26523;52.504;13.498;2022-07-09T01:13:04;10.10;;;2.28;;
40807;SDS011;26523;52.504;13.498;2022-07-09T01:15:30;4.45;;;2.10;;
40807;SDS011;26523;52.504;13.498;2022-07-09T01:17:56;9.85;;;1.90;;
40807;SDS011;26523;52.504;13.498;2022-07-09T01:20:26;5.75;;;1.35;;
40807;SDS011;26523;52.504;13.498;2022-07-09T01:22:54;2.88;;;1.15;;
40807;SDS011;26523;52.504;13.498;2022-07-09T01:25:20;4.60;;;1.98;;
40807;SDS011;26523;52.504;13.498;2022-07-09T01:28:10;3.28;;;1.65;;
40807;SDS011;26523;52.504;13.498;2022-07-09T01:30:37;4.70;;;1.40;;
40807;SDS011;26523;52.504;13.498;2022-07-09T01:33:04;3.65;;;1.70;;
40807;SDS011;26523;52.504;13.498;2022-07-09T01:35:30;8.00;;;1.90;;
40807;SDS011;26523;52.504;13.498;2022-07-09T01:37:56;5.30;;;1.33;;
40807;SDS011;26523;52.504;13.498;2022-07-09T01:40:22;5.15;;;1.73;;
40807;SDS011;26523;52.504;13.498;2022-07-09T01:42:48;7.32;;;1.58;;
40807;SDS011;26523;52.504;13.498;2022-07-09T01:45:14;6.55;;;2.30;;
40807;SDS011;26523;52.504;13.498;2022-07-09T01:47:40;8.57;;;1.80;;
40807;SDS011;26523;52.504;13.498;2022-07-09T01:50:06;5.68;;;2.10;;
40807;SDS011;26523;52.504;13.498;2022-07-09T01:52:33;5.10;;;1.70;;
40807;SDS011;26523;52.504;13.498;2022-07-09T01:54:59;7.82;;;1.80;;
40807;SDS011;26523;52.504;13.498;2022-07-09T01:57:25;5.35;;;1.63;;
40807;SDS011;26523;52.504;13.498;2022-07-09T01:59:51;6.05;;;1.98;;
40807;SDS011;26523;52.504;13.498;2022-07-09T02:02:17;8.02;;;2.08;;
40807;SDS011;26523;52.504;13.498;2022-07-09T02:04:43;9.60;;;1.63;;
40807;SDS011;26523;52.504;13.498;2022-07-09T02:07:10;6.38;;;1.75;;
40807;SDS011;26523;52.504;13.498;2022-07-09T02:09:37;4.03;;;1.55;;
40807;SDS011;26523;52.504;13.498;2022-07-09T02:12:03;8.30;;;1.95;;
40807;SDS011;26523;52.504;13.498;2022-07-09T02:14:29;9.63;;;1.83;;
40807;SDS011;26523;52.504;13.498;2022-07-09T02:16:55;4.93;;;1.92;;
40807;SDS011;26523;52.504;13.498;2022-07-09T02:19:21;7.40;;;1.70;;
40807;SDS011;26523;52.504;13.498;2022-07-09T02:21:46;3.97;;;1.90;;
40807;SDS011;26523;52.504;13.498;2022-07-09T02:24:12;7.78;;;2.00;;
40807;SDS011;26523;52.504;13.498;2022-07-09T02:26:38;8.85;;;2.20;;
40807;SDS011;26523;52.504;13.498;2022-07-09T02:29:03;5.22;;;2.25;;
40807;SDS011;26523;52.504;13.498;2022-07-09T02:31:29;15.30;;;2.55;;
40807;SDS011;26523;52.504;13.498;2022-07-09T02:33:55;4.63;;;2.30;;
40807;SDS011;26523;52.504;13.498;2022-07-09T02:36:21;3.92;;;1.73;;
40807;SDS011;26523;52.504;13.498;2022-07-09T02:38:47;4.47;;;1.63;;
40807;SDS011;26523;52.504;13.498;2022-07-09T02:41:13;4.70;;;2.90;;
40807;SDS011;26523;52.504;13.498;2022-07-09T02:43:39;3.85;;;1.80;;
40807;SDS011;26523;52.504;13.498;2022-07-09T02:46:07;4.28;;;1.98;;
40807;SDS011;26523;52.504;13.498;2022-07-09T02:48:33;7.63;;;2.60;;
40807;SDS011;26523;52.504;13.498;2022-07-09T02:50:59;6.10;;;2.75;;
40807;SDS011;26523;52.504;13.498;2022-07-09T02:53:25;3.80;;;2.05;;
40807;SDS011;26523;52.504;13.498;2022-07-09T02:55:50;4.78;;;1.80;;
40807;SDS011;26523;52.504;13.498;2022-07-09T02:58:16;6.45;;;2.35;;
40807;SDS011;26523;52.504;13.498;2022-07-09T03:00:42;6.80;;;2.05;;
40807;SDS011;26523;52.504;13.498;2022-07-09T03:03:07;6.97;;;2.70;;
40807;SDS011;26523;52.504;13.498;2022-07-09T03:05:33;6.03;;;2.00;;
40807;SDS011;26523;52.504;13.498;2022-07-09T03:07:59;8.05;;;2.08;;
40807;SDS011;26523;52.504;13.498;2022-07-09T03:10:26;6.18;;;1.98;;
40807;SDS011;26523;52.504;13.498;2022-07-09T03:12:51;10.80;;;2.70;;
40807;SDS011;26523;52.504;13.498;2022-07-09T03:15:17;3.85;;;1.85;;
40807;SDS011;26523;52.504;13.498;2022-07-09T03:17:43;6.43;;;2.17;;
40807;SDS011;26523;52.504;13.498;2022-07-09T03:20:09;4.85;;;2.10;;
40807;SDS011;26523;52.504;13.498;2022-07-09T03:22:36;8.82;;;2.15;;
40807;SDS011;26523;52.504;13.498;2022-07-09T03:25:02;7.22;;;2.17;;
40807;SDS011;26523;52.504;13.498;2022-07-09T03:27:29;3.20;;;2.03;;
40807;SDS011;26523;52.504;13.498;2022-07-09T03:29:54;5.15;;;1.75;;
40807;SDS011;26523;52.504;13.498;2022-07-09T03:32:20;4.88;;;2.13;;
40807;SDS011;26523;52.504;13.498;2022-07-09T03:34:46;4.65;;;2.33;;
40807;SDS011;26523;52.504;13.498;2022-07-09T03:37:12;5.05;;;1.90;;
40807;SDS011;26523;52.504;13.498;2022-07-09T03:39:38;6.60;;;2.38;;
40807;SDS011;26523;52.504;13.498;2022-07-09T03:42:03;8.02;;;2.08;;
40807;SDS011;26523;52.504;13.498;2022-07-09T03:44:31;8.30;;;2.60;;
40807;SDS011;26523;52.504;13.498;2022-07-09T03:46:58;5.45;;;2.38;;
40807;SDS011;26523;52.504;13.498;2022-07-09T03:49:24;3.72;;;1.88;;
40807;SDS011;26523;52.504;13.498;2022-07-09T03:51:49;4.68;;;1.95;;
40807;SDS011;26523;52.504;13.498;2022-07-09T03:54:15;6.40;;;1.95;;
40807;SDS011;26523;52.504;13.498;2022-07-09T03:56:41;9.85;;;2.90;;
40807;SDS011;26523;52.504;13.498;2022-07-09T03:59:06;5.70;;;2.15;;
40807;SDS011;26523;52.504;13.498;2022-07-09T04:01:32;3.80;;;1.58;;
40807;SDS011;26523;52.504;13.498;2022-07-09T04:03:58;6.53;;;1.98;;
40807;SDS011;26523;52.504;13.498;2022-07-09T04:06:24;5.45;;;1.60;;
40807;SDS011;26523;52.504;13.498;2022-07-09T04:08:49;10.10;;;1.65;;
40807;SDS011;26523;52.504;13.498;2022-07-09T04:11:15;4.90;;;1.80;;
40807;SDS011;26523;52.504;13.498;2022-07-09T04:13:41;10.05;;;1.83;;
40807;SDS011;26523;52.504;13.498;2022-07-09T04:16:07;5.40;;;1.63;;
40807;SDS011;26523;52.504;13.498;2022-07-09T04:18:33;3.97;;;1.70;;
40807;SDS011;26523;52.504;13.498;2022-07-09T04:20:59;6.57;;;1.85;;
40807;SDS011;26523;52.504;13.498;2022-07-09T04:23:25;7.18;;;2.30;;
40807;SDS011;26523;52.504;13.498;2022-07-09T04:25:51;3.60;;;1.38;;
40807;SDS011;26523;52.504;13.498;2022-07-09T04:28:17;3.47;;;1.50;;
40807;SDS011;26523;52.504;13.498;2022-07-09T04:30:43;5.53;;;1.98;;
40807;SDS011;26523;52.504;13.498;2022-07-09T04:33:09;5.53;;;2.05;;
40807;SDS011;26523;52.504;13.498;2022-07-09T04:35:35;3.15;;;1.70;;
40807;SDS011;26523;52.504;13.498;2022-07-09T04:38:01;11.32;;;1.65;;
40807;SDS011;26523;52.504;13.498;2022-07-09T04:40:27;3.70;;;1.50;;
40807;SDS011;26523;52.504;13.498;2022-07-09T04:42:53;4.10;;;1.80;;
40807;SDS011;26523;52.504;13.498;2022-07-09T04:45:18;6.30;;;2.08;;
40807;SDS011;26523;52.504;13.498;2022-07-09T04:47:44;6.20;;;1.30;;
40807;SDS011;26523;52.504;13.498;2022-07-09T04:50:09;3.45;;;1.60;;
40807;SDS011;26523;52.504;13.498;2022-07-09T04:52:36;5.78;;;1.67;;
40807;SDS011;26523;52.504;13.498;2022-07-09T04:55:03;3.60;;;1.25;;
40807;SDS011;26523;52.504;13.498;2022-07-09T04:57:29;5.60;;;1.40;;
40807;SDS011;26523;52.504;13.498;2022-07-09T04:59:58;4.25;;;1.63;;
40807;SDS011;26523;52.504;13.498;2022-07-09T05:02:25;7.10;;;1.60;;
40807;SDS011;26523;52.504;13.498;2022-07-09T05:04:50;4.45;;;1.65;;
40807;SDS011;26523;52.504;13.498;2022-07-09T05:07:16;3.83;;;1.30;;
40807;SDS011;26523;52.504;13.498;2022-07-09T05:09:41;5.22;;;1.80;;
40807;SDS011;26523;52.504;13.498;2022-07-09T05:12:07;3.75;;;1.30;;
40807;SDS011;26523;52.504;13.498;2022-07-09T05:14:37;6.57;;;1.90;;
40807;SDS011;26523;52.504;13.498;2022-07-09T05:17:03;3.50;;;1.58;;
40807;SDS011;26523;52.504;13.498;2022-07-09T05:19:29;5.97;;;1.40;;
40807;SDS011;26523;52.504;13.498;2022-07-09T05:21:55;4.03;;;1.67;;
40807;SDS011;26523;52.504;13.498;2022-07-09T05:24:21;6.00;;;1.70;;
40807;SDS011;26523;52.504;13.498;2022-07-09T05:26:47;5.80;;;1.67;;
40807;SDS011;26523;52.504;13.498;2022-07-09T05:29:13;6.57;;;1.48;;
40807;SDS011;26523;52.504;13.498;2022-07-09T05:31:39;6.88;;;1.55;;
40807;SDS011;26523;52.504;13.498;2022-07-09T05:34:05;4.72;;;1.40;;
40807;SDS011;26523;52.504;13.498;2022-07-09T05:36:30;4.28;;;1.52;;
40807;SDS011;26523;52.504;13.498;2022-07-09T05:38:57;7.32;;;2.63;;
40807;SDS011;26523;52.504;13.498;2022-07-09T05:41:23;4.95;;;1.65;;
40807;SDS011;26523;52.504;13.498;2022-07-09T05:43:49;3.35;;;1.38;;
40807;SDS011;26523;52.504;13.498;2022-07-09T05:46:16;4.13;;;1.67;;
40807;SDS011;26523;52.504;13.498;2022-07-09T05:48:42;3.15;;;1.50;;
40807;SDS011;26523;52.504;13.498;2022-07-09T05:51:07;3.83;;;1.50;;
40807;SDS011;26523;52.504;13.498;2022-07-09T05:53:33;7.38;;;1.27;;
40807;SDS011;26523;52.504;13.498;2022-07-09T05:55:59;4.72;;;1.60;;
40807;SDS011;26523;52.504;13.498;2022-07-09T05:58:25;2.97;;;1.35;;
40807;SDS011;26523;52.504;13.498;2022-07-09T06:00:51;4.15;;;1.30;;
40807;SDS011;26523;52.504;13.498;2022-07-09T06:03:16;3.75;;;1.83;;
40807;SDS011;26523;52.504;13.498;2022-07-09T06:05:43;4.63;;;1.42;;
40807;SDS011;26523;52.504;13.498;2022-07-09T06:08:08;4.57;;;1.58;;
40807;SDS011;26523;52.504;13.498;2022-07-09T06:10:34;7.25;;;1.33;;
40807;SDS011;26523;52.504;13.498;2022-07-09T06:13:00;6.40;;;1.45;;
40807;SDS011;26523;52.504;13.498;2022-07-09T06:15:26;4.90;;;1.30;;
40807;SDS011;26523;52.504;13.498;2022-07-09T06:17:53;2.22;;;1.08;;
40807;SDS011;26523;52.504;13.498;2022-07-09T06:20:19;12.25;;;2.42;;
40807;SDS011;26523;52.504;13.498;2022-07-09T06:22:45;4.20;;;1.90;;
40807;SDS011;26523;52.504;13.498;2022-07-09T06:25:11;6.68;;;1.55;;
40807;SDS011;26523;52.504;13.498;2022-07-09T06:27:37;3.50;;;1.52;;
40807;SDS011;26523;52.504;13.498;2022-07-09T06:30:05;5.53;;;1.33;;
40807;SDS011;26523;52.504;13.498;2022-07-09T06:32:31;5.25;;;1.50;;
40807;SDS011;26523;52.504;13.498;2022-07-09T06:34:56;3.83;;;1.35;;
40807;SDS011;26523;52.504;13.498;2022-07-09T06:37:22;3.92;;;1.58;;
40807;SDS011;26523;52.504;13.498;2022-07-09T06:39:48;2.75;;;1.13;;
40807;SDS011;26523;52.504;13.498;2022-07-09T06:42:15;6.68;;;1.25;;
40807;SDS011;26523;52.504;13.498;2022-07-09T06:44:42;2.80;;;1.25;;
40807;SDS011;26523;52.504;13.498;2022-07-09T06:47:08;3.90;;;1.48;;
40807;SDS011;26523;52.504;13.498;2022-07-09T06:49:34;4.05;;;1.75;;
40807;SDS011;26523;52.504;13.498;2022-07-09T06:52:00;6.22;;;1.65;;
40807;SDS011;26523;52.504;13.498;2022-07-09T06:54:26;5.03;;;1.35;;
40807;SDS011;26523;52.504;13.498;2022-07-09T06:56:52;5.05;;;2.08;;
40807;SDS011;26523;52.504;13.498;2022-07-09T06:59:17;4.95;;;1.40;;
40807;SDS011;26523;52.504;13.498;2022-07-09T07:01:44;4.93;;;1.20;;
40807;SDS011;26523;52.504;13.498;2022-07-09T07:04:10;5.00;;;1.60;;
40807;SDS011;26523;52.504;13.498;2022-07-09T07:06:39;8.35;;;1.70;;
40807;SDS011;26523;52.504;13.498;2022-07-09T07:09:05;3.83;;;1.30;;
40807;SDS011;26523;52.504;13.498;2022-07-09T07:11:31;8.50;;;1.30;;
40807;SDS011;26523;52.504;13.498;2022-07-09T07:13:57;7.28;;;2.40;;
40807;SDS011;26523;52.504;13.498;2022-07-09T07:16:22;4.40;;;1.90;;
40807;SDS011;26523;52.504;13.498;2022-07-09T07:18:48;6.10;;;2.00;;
40807;SDS011;26523;52.504;13.498;2022-07-09T07:21:13;7.07;;;1.77;;
40807;SDS011;26523;52.504;13.498;2022-07-09T07:23:39;2.38;;;1.48;;
40807;SDS011;26523;52.504;13.498;2022-07-09T07:26:05;5.40;;;1.55;;
40807;SDS011;26523;52.504;13.498;2022-07-09T07:28:30;3.65;;;1.38;;
40807;SDS011;26523;52.504;13.498;2022-07-09T07:30:56;6.10;;;1.48;;
40807;SDS011;26523;52.504;13.498;2022-07-09T07:33:22;6.35;;;1.42;;
40807;SDS011;26523;52.504;13.498;2022-07-09T07:35:48;4.55;;;1.50;;
40807;SDS011;26523;52.504;13.498;2022-07-09T07:38:14;4.15;;;1.23;;
40807;SDS011;26523;52.504;13.498;2022-07-09T07:40:39;4.70;;;1.50;;
40807;SDS011;26523;52.504;13.498;2022-07-09T07:43:05;4.28;;;1.77;;
40807;SDS011;26523;52.504;13.498;2022-07-09T07:45:31;3.55;;;1.38;;
40807;SDS011;26523;52.504;13.498;2022-07-09T07:47:57;3.28;;;1.20;;
40807;SDS011;26523;52.504;13.498;2022-07-09T07:50:23;4.50;;;1.50;;
40807;SDS011;26523;52.504;13.498;2022-07-09T07:52:49;4.75;;;1.60;;
40807;SDS011;26523;52.504;13.498;2022-07-09T07:55:15;2.60;;;1.42;;
40807;SDS011;26523;52.504;13.498;2022-07-09T07:57:41;4.50;;;1.30;;
40807;SDS011;26523;52.504;13.498;2022-07-09T08:00:06;3.78;;;1.20;;
40807;SDS011;26523;52.504;13.498;2022-07-09T08:02:33;4.82;;;1.50;;
40807;SDS011;26523;52.504;13.498;2022-07-09T08:04:59;5.07;;;1.23;;
40807;SDS011;26523;52.504;13.498;2022-07-09T08:07:25;1.98;;;0.90;;
40807;SDS011;26523;52.504;13.498;2022-07-09T08:09:52;2.70;;;1.35;;
40807;SDS011;26523;52.504;13.498;2022-07-09T08:12:18;3.42;;;1.15;;
40807;SDS011;26523;52.504;13.498;2022-07-09T08:14:43;2.63;;;1.13;;
40807;SDS011;26523;52.504;13.498;2022-07-09T08:17:09;5.35;;;1.33;;
40807;SDS011;26523;52.504;13.498;2022-07-09T08:19:35;2.90;;;1.20;;
40807;SDS011;26523;52.504;13.498;2022-07-09T08:22:00;2.78;;;1.33;;
40807;SDS011;26523;52.504;13.498;2022-07-09T08:24:26;2.17;;;1.08;;
40807;SDS011;26523;52.504;13.498;2022-07-09T08:26:52;5.20;;;1.30;;
40807;SDS011;26523;52.504;13.498;2022-07-09T08:29:18;4.15;;;1.27;;
40807;SDS011;26523;52.504;13.498;2022-07-09T08:31:43;7.90;;;1.60;;
40807;SDS011;26523;52.504;13.498;2022-07-09T08:34:09;4.10;;;1.40;;
40807;SDS011;26523;52.504;13.498;2022-07-09T08:36:35;5.55;;;1.63;;
40807;SDS011;26523;52.504;13.498;2022-07-09T08:39:00;2.80;;;1.55;;
40807;SDS011;26523;52.504;13.498;2022-07-09T08:41:26;3.63;;;1.10;;
40807;SDS011;26523;52.504;13.498;2022-07-09T08:43:52;4.68;;;1.48;;
40807;SDS011;26523;52.504;13.498;2022-07-09T08:46:18;4.65;;;1.40;;
40807;SDS011;26523;52.504;13.498;2022-07-09T08:48:44;3.55;;;1.38;;
40807;SDS011;26523;52.504;13.498;2022-07-09T08:51:10;3.78;;;1.30;;
40807;SDS011;26523;52.504;13.498;2022-07-09T08:53:45;3.50;;;1.23;;
40807;SDS011;26523;52.504;13.498;2022-07-09T08:56:11;2.88;;;1.15;;
40807;SDS011;26523;52.504;13.498;2022-07-09T08:58:37;2.17;;;1.17;;
40807;SDS011;26523;52.504;13.498;2022-07-09T09:01:03;2.80;;;1.42;;
40807;SDS011;26523;52.504;13.498;2022-07-09T09:03:30;4.70;;;1.27;;
40807;SDS011;26523;52.504;13.498;2022-07-09T09:06:03;5.25;;;1.55;;
40807;SDS011;26523;52.504;13.498;2022-07-09T09:08:34;6.00;;;1.77;;
40807;SDS011;26523;52.504;13.498;2022-07-09T09:11:02;5.20;;;1.65;;
40807;SDS011;26523;52.504;13.498;2022-07-09T09:13:28;7.53;;;1.58;;
40807;SDS011;26523;52.504;13.498;2022-07-09T09:16:04;3.22;;;1.20;;
40807;SDS011;26523;52.504;13.498;2022-07-09T09:18:31;3.75;;;1.30;;
40807;SDS011;26523;52.504;13.498;2022-07-09T09:21:03;2.72;;;1.40;;
40807;SDS011;26523;52.504;13.498;2022-07-09T09:23:37;2.47;;;1.13;;
40807;SDS011;26523;52.504;13.498;2022-07-09T09:26:11;8.45;;;1.77;;
40807;SDS011;26523;52.504;13.498;2022-07-09T09:28:48;6.03;;;1.52;;
40807;SDS011;26523;52.504;13.498;2022-07-09T09:33:44;4.00;;;1.63;;
40807;SDS011;26523;52.504;13.498;2022-07-09T09:36:10;2.38;;;1.10;;
40807;SDS011;26523;52.504;13.498;2022-07-09T09:38:36;4.03;;;1.50;;
40807;SDS011;26523;52.504;13.498;2022-07-09T09:41:01;3.75;;;1.58;;
40807;SDS011;26523;52.504;13.498;2022-07-09T09:43:27;2.03;;;0.95;;
40807;SDS011;26523;52.504;13.498;2022-07-09T09:45:57;5.75;;;1.15;;
40807;SDS011;26523;52.504;13.498;2022-07-09T09:48:23;2.60;;;1.30;;
40807;SDS011;26523;52.504;13.498;2022-07-09T09:50:49;3.97;;;1.50;;
40807;SDS011;26523;52.504;13.498;2022-07-09T09:53:16;2.47;;;1.20;;
40807;SDS011;26523;52.504;13.498;2022-07-09T09:55:44;5.30;;;1.60;;
40807;SDS011;26523;52.504;13.498;2022-07-09T09:58:11;10.02;;;1.80;;
40807;SDS011;26523;52.504;13.498;2022-07-09T10:00:37;4.38;;;1.50;;
40807;SDS011;26523;52.504;13.498;2022-07-09T10:03:04;3.83;;;1.80;;
40807;SDS011;26523;52.504;13.498;2022-07-09T10:05:30;4.15;;;2.00;;
40807;SDS011;26523;52.504;13.498;2022-07-09T10:07:57;4.20;;;1.52;;
40807;SDS011;26523;52.504;13.498;2022-07-09T10:10:23;4.43;;;1.90;;
40807;SDS011;26523;52.504;13.498;2022-07-09T10:12:49;3.92;;;1.90;;
40807;SDS011;26523;52.504;13.498;2022-07-09T10:15:24;3.38;;;1.70;;
40807;SDS011;26523;52.504;13.498;2022-07-09T10:17:54;3.70;;;1.42;;
40807;SDS011;26523;52.504;13.498;2022-07-09T10:20:33;3.28;;;1.35;;
40807;SDS011;26523;52.504;13.498;2022-07-09T10:22:59;5.63;;;1.90;;
40807;SDS011;26523;52.504;13.498;2022-07-09T10:25:29;8.13;;;1.80;;
40807;SDS011;26523;52.504;13.498;2022-07-09T10:27:56;4.38;;;1.85;;
40807;SDS011;26523;52.504;13.498;2022-07-09T10:35:43;3.83;;;1.85;;
40807;SDS011;26523;52.504;13.498;2022-07-09T10:40:37;5.07;;;1.88;;
40807;SDS011;26523;52.504;13.498;2022-07-09T10:43:07;8.00;;;2.00;;
40807;SDS011;26523;52.504;13.498;2022-07-09T10:48:00;5.40;;;1.80;;
40807;SDS011;26523;52.504;13.498;2022-07-09T10:50:27;2.90;;;1.40;;
40807;SDS011;26523;52.504;13.498;2022-07-09T10:52:55;3.78;;;1.45;;
40807;SDS011;26523;52.504;13.498;2022-07-09T10:55:24;4.38;;;1.50;;
40807;SDS011;26523;52.504;13.498;2022-07-09T10:57:52;5.88;;;2.30;;
40807;SDS011;26523;52.504;13.498;2022-07-09T11:00:19;3.13;;;1.48;;
40807;SDS011;26523;52.504;13.498;2022-07-09T11:05:22;3.88;;;1.50;;
40807;SDS011;26523;52.504;13.498;2022-07-09T11:10:23;3.47;;;1.00;;
40807;SDS011;26523;52.504;13.498;2022-07-09T11:12:50;4.25;;;1.60;;
40807;SDS011;26523;52.504;13.498;2022-07-09T11:15:20;2.83;;;1.27;;
40807;SDS011;26523;52.504;13.498;2022-07-09T11:17:56;3.03;;;1.45;;
40807;SDS011;26523;52.504;13.498;2022-07-09T11:20:26;3.03;;;1.30;;
40807;SDS011;26523;52.504;13.498;2022-07-09T11:22:53;3.78;;;1.13;;
40807;SDS011;26523;52.504;13.498;2022-07-09T11:25:24;3.38;;;1.52;;
40807;SDS011;26523;52.504;13.498;2022-07-09T11:27:51;5.22;;;1.60;;
40807;SDS011;26523;52.504;13.498;2022-07-09T11:30:21;6.90;;;1.60;;
40807;SDS011;26523;52.504;13.498;2022-07-09T11:32:47;5.75;;;1.70;;
40807;SDS011;26523;52.504;13.498;2022-07-09T11:35:22;3.83;;;1.35;;
40807;SDS011;26523;52.504;13.498;2022-07-09T11:37:56;2.30;;;1.00;;
40807;SDS011;26523;52.504;13.498;2022-07-09T11:40:25;2.85;;;1.40;;
40807;SDS011;26523;52.504;13.498;2022-07-09T11:42:51;3.70;;;1.40;;
40807;SDS011;26523;52.504;13.498;2022-07-09T11:45:21;4.70;;;1.23;;
40807;SDS011;26523;52.504;13.498;2022-07-09T11:48:01;2.58;;;1.38;;
40807;SDS011;26523;52.504;13.498;2022-07-09T11:50:31;3.35;;;1.42;;
40807;SDS011;26523;52.504;13.498;2022-07-09T11:52:57;2.35;;;1.10;;
40807;SDS011;26523;52.504;13.498;2022-07-09T11:55:30;2.47;;;1.23;;
40807;SDS011;26523;52.504;13.498;2022-07-09T12:02:54;2.95;;;1.23;;
40807;SDS011;26523;52.504;13.498;2022-07-09T12:05:25;1.83;;;0.90;;
40807;SDS011;26523;52.504;13.498;2022-07-09T12:07:55;3.38;;;1.15;;
40807;SDS011;26523;52.504;13.498;2022-07-09T12:10:26;4.35;;;1.17;;
40807;SDS011;26523;52.504;13.498;2022-07-09T12:12:53;2.97;;;1.60;;
40807;SDS011;26523;52.504;13.498;2022-07-09T12:15:19;1.45;;;0.70;;
40807;SDS011;26523;52.504;13.498;2022-07-09T12:17:44;1.75;;;0.88;;
40807;SDS011;26523;52.504;13.498;2022-07-09T12:20:15;1.92;;;0.93;;
40807;SDS011;26523;52.504;13.498;2022-07-09T12:22:41;2.53;;;1.27;;
40807;SDS011;26523;52.504;13.498;2022-07-09T12:25:07;1.10;;;0.70;;
40807;SDS011;26523;52.504;13.498;2022-07-09T12:27:33;3.45;;;1.20;;
40807;SDS011;26523;52.504;13.498;2022-07-09T12:29:58;2.03;;;1.10;;
40807;SDS011;26523;52.504;13.498;2022-07-09T12:32:24;2.08;;;0.88;;
40807;SDS011;26523;52.504;13.498;2022-07-09T12:34:50;2.33;;;1.05;;
40807;SDS011;26523;52.504;13.498;2022-07-09T12:37:15;2.65;;;1.05;;
40807;SDS011;26523;52.504;13.498;2022-07-09T12:39:41;2.80;;;1.17;;
40807;SDS011;26523;52.504;13.498;2022-07-09T12:42:06;4.53;;;1.42;;
40807;SDS011;26523;52.504;13.498;2022-07-09T12:44:32;3.30;;;1.20;;
40807;SDS011;26523;52.504;13.498;2022-07-09T12:46:58;2.92;;;1.17;;
40807;SDS011;26523;52.504;13.498;2022-07-09T12:49:23;3.95;;;0.90;;
40807;SDS011;26523;52.504;13.498;2022-07-09T12:51:49;1.67;;;0.95;;
40807;SDS011;26523;52.504;13.498;2022-07-09T12:54:15;4.03;;;0.95;;
40807;SDS011;26523;52.504;13.498;2022-07-09T12:56:41;1.40;;;0.70;;
40807;SDS011;26523;52.504;13.498;2022-07-09T12:59:06;2.53;;;0.85;;
40807;SDS011;26523;52.504;13.498;2022-07-09T13:01:32;2.78;;;1.05;;
40807;SDS011;26523;52.504;13.498;2022-07-09T13:03:58;2.13;;;1.10;;
40807;SDS011;26523;52.504;13.498;2022-07-09T13:06:23;2.78;;;1.50;;
40807;SDS011;26523;52.504;13.498;2022-07-09T13:09:02;2.72;;;1.50;;
40807;SDS011;26523;52.504;13.498;2022-07-09T13:11:29;2.17;;;1.02;;
40807;SDS011;26523;52.504;13.498;2022-07-09T13:13:55;6.72;;;1.60;;
40807;SDS011;26523;52.504;13.498;2022-07-09T13:16:21;2.67;;;1.27;;
40807;SDS011;26523;52.504;13.498;2022-07-09T13:18:47;2.75;;;1.30;;
40807;SDS011;26523;52.504;13.498;2022-07-09T13:21:13;5.20;;;1.55;;
40807;SDS011;26523;52.504;13.498;2022-07-09T13:23:39;2.95;;;1.55;;
40807;SDS011;26523;52.504;13.498;2022-07-09T13:26:04;4.15;;;1.90;;
40807;SDS011;26523;52.504;13.498;2022-07-09T13:28:30;3.63;;;1.50;;
40807;SDS011;26523;52.504;13.498;2022-07-09T13:30:56;2.80;;;1.52;;
40807;SDS011;26523;52.504;13.498;2022-07-09T13:33:21;2.55;;;1.23;;
40807;SDS011;26523;52.504;13.498;2022-07-09T13:35:47;9.18;;;2.60;;
40807;SDS011;26523;52.504;13.498;2022-07-09T13:38:13;9.38;;;1.52;;
40807;SDS011;26523;52.504;13.498;2022-07-09T13:40:39;7.55;;;1.90;;
40807;SDS011;26523;52.504;13.498;2022-07-09T13:43:04;5.38;;;1.10;;
40807;SDS011;26523;52.504;13.498;2022-07-09T13:45:30;3.00;;;1.40;;
40807;SDS011;26523;52.504;13.498;2022-07-09T13:47:56;1.88;;;0.93;;
40807;SDS011;26523;52.504;13.498;2022-07-09T13:50:22;4.22;;;1.35;;
40807;SDS011;26523;52.504;13.498;2022-07-09T13:52:48;2.10;;;1.10;;
40807;SDS011;26523;52.504;13.498;2022-07-09T13:55:13;2.38;;;1.10;;
40807;SDS011;26523;52.504;13.498;2022-07-09T13:57:39;1.58;;;0.90;;
40807;SDS011;26523;52.504;13.498;2022-07-09T14:00:05;1.35;;;0.70;;
40807;SDS011;26523;52.504;13.498;2022-07-09T14:02:31;1.95;;;0.82;;
40807;SDS011;26523;52.504;13.498;2022-07-09T14:05:00;2.28;;;1.17;;
40807;SDS011;26523;52.504;13.498;2022-07-09T14:07:26;3.13;;;1.13;;
40807;SDS011;26523;52.504;13.498;2022-07-09T14:09:52;1.75;;;0.82;;
40807;SDS011;26523;52.504;13.498;2022-07-09T14:12:18;3.00;;;0.90;;
40807;SDS011;26523;52.504;13.498;2022-07-09T14:14:44;2.30;;;0.80;;
40807;SDS011;26523;52.504;13.498;2022-07-09T14:17:10;2.67;;;0.70;;
40807;SDS011;26523;52.504;13.498;2022-07-09T14:19:35;1.58;;;0.80;;
40807;SDS011;26523;52.504;13.498;2022-07-09T14:22:02;0.98;;;0.65;;
40807;SDS011;26523;52.504;13.498;2022-07-09T14:24:28;2.17;;;1.05;;
40807;SDS011;26523;52.504;13.498;2022-07-09T14:26:54;1.33;;;0.73;;
40807;SDS011;26523;52.504;13.498;2022-07-09T14:29:19;3.05;;;0.90;;
40807;SDS011;26523;52.504;13.498;2022-07-09T14:31:45;2.58;;;1.20;;
40807;SDS011;26523;52.504;13.498;2022-07-09T14:34:11;2.80;;;1.15;;
40807;SDS011;26523;52.504;13.498;2022-07-09T14:36:36;1.48;;;0.80;;
40807;SDS011;26523;52.504;13.498;2022-07-09T14:39:02;1.25;;;0.90;;
40807;SDS011;26523;52.504;13.498;2022-07-09T14:41:28;2.75;;;0.90;;
40807;SDS011;26523;52.504;13.498;2022-07-09T14:43:54;2.47;;;1.17;;
40807;SDS011;26523;52.504;13.498;2022-07-09T14:46:20;2.78;;;1.00;;
40807;SDS011;26523;52.504;13.498;2022-07-09T14:48:46;2.13;;;0.90;;
40807;SDS011;26523;52.504;13.498;2022-07-09T14:51:12;2.45;;;0.98;;
40807;SDS011;26523;52.504;13.498;2022-07-09T14:53:38;2.10;;;1.00;;